sensor_id;sensor_type;location;lat;lon;timestamp;P1;durP1;ratioP1;P2;durP2;ratioP2
4911;SDS011;2471;47.056;8.350;2023-11-19T00:01:49;5.70;;;4.45;;
4911;SDS011;2471;47.056;8.350;2023-11-19T00:04:15;4.80;;;4.40;;
4911;SDS011;2471;47.056;8.350;2023-11-19T00:06:41;5.60;;;5.00;;
4911;SDS011;2471;47.056;8.350;2023-11-19T00:09:07;4.70;;;4.30;;
4911;SDS011;2471;47.056;8.350;2023-11-19T00:11:33;4.30;;;4.00;;
4911;SDS011;2471;47.056;8.350;2023-11-19T00:13:59;6.50;;;5.20;;
4911;SDS011;2471;47.056;8.350;2023-11-19T00:16:25;5.03;;;4.63;;
4911;SDS011;2471;47.056;8.350;2023-11-19T00:18:51;5.00;;;4.18;;
4911;SDS011;2471;47.056;8.350;2023-11-19T00:21:17;4.35;;;4.03;;
4911;SDS011;2471;47.056;8.350;2023-11-19T00:23:43;4.75;;;4.25;;
4911;SDS011;2471;47.056;8.350;2023-11-19T00:26:09;5.70;;;5.20;;
4911;SDS011;2471;47.056;8.350;2023-11-19T00:28:35;4.70;;;4.20;;
4911;SDS011;2471;47.056;8.350;2023-11-19T00:31:03;4.60;;;4.30;;
4911;SDS011;2471;47.056;8.350;2023-11-19T00:33:29;6.80;;;4.82;;
4911;SDS011;2471;47.056;8.350;2023-11-19T00:35:56;5.00;;;4.60;;
4911;SDS011;2471;47.056;8.350;2023-11-19T00:38:22;5.55;;;5.10;;
4911;SDS011;2471;47.056;8.350;2023-11-19T00:40:48;5.30;;;4.75;;
4911;SDS011;2471;47.056;8.350;2023-11-19T00:43:14;6.35;;;5.60;;
4911;SDS011;2471;47.056;8.350;2023-11-19T00:45:40;5.75;;;4.97;;
4911;SDS011;2471;47.056;8.350;2023-11-19T00:48:06;6.15;;;5.40;;
4911;SDS011;2471;47.056;8.350;2023-11-19T00:50:32;6.60;;;4.95;;
4911;SDS011;2471;47.056;8.350;2023-11-19T00:52:58;5.90;;;5.30;;
4911;SDS011;2471;47.056;8.350;2023-11-19T00:55:23;9.40;;;6.40;;
4911;SDS011;2471;47.056;8.350;2023-11-19T00:57:49;5.90;;;5.30;;
4911;SDS011;2471;47.056;8.350;2023-11-19T01:00:15;6.07;;;5.47;;
4911;SDS011;2471;47.056;8.350;2023-11-19T01:02:46;6.27;;;5.00;;
4911;SDS011;2471;47.056;8.350;2023-11-19T01:05:14;5.70;;;5.20;;
4911;SDS011;2471;47.056;8.350;2023-11-19T01:07:40;5.72;;;5.22;;
4911;SDS011;2471;47.056;8.350;2023-11-19T01:10:06;5.80;;;5.10;;
4911;SDS011;2471;47.056;8.350;2023-11-19T01:12:33;7.13;;;5.35;;
4911;SDS011;2471;47.056;8.350;2023-11-19T01:14:59;6.85;;;5.40;;
4911;SDS011;2471;47.056;8.350;2023-11-19T01:17:26;6.60;;;5.90;;
4911;SDS011;2471;47.056;8.350;2023-11-19T01:19:52;7.15;;;5.82;;
4911;SDS011;2471;47.056;8.350;2023-11-19T01:22:18;6.25;;;5.65;;
4911;SDS011;2471;47.056;8.350;2023-11-19T01:24:44;5.85;;;5.22;;
4911;SDS011;2471;47.056;8.350;2023-11-19T01:27:10;5.57;;;5.07;;
4911;SDS011;2471;47.056;8.350;2023-11-19T01:29:36;5.20;;;4.80;;
4911;SDS011;2471;47.056;8.350;2023-11-19T01:32:03;8.40;;;5.80;;
4911;SDS011;2471;47.056;8.350;2023-11-19T01:34:29;6.73;;;6.13;;
4911;SDS011;2471;47.056;8.350;2023-11-19T01:36:55;7.93;;;6.70;;
4911;SDS011;2471;47.056;8.350;2023-11-19T01:39:21;6.70;;;6.10;;
4911;SDS011;2471;47.056;8.350;2023-11-19T01:41:47;7.80;;;6.00;;
4911;SDS011;2471;47.056;8.350;2023-11-19T01:44:13;6.72;;;6.03;;
4911;SDS011;2471;47.056;8.350;2023-11-19T01:46:43;7.22;;;6.32;;
4911;SDS011;2471;47.056;8.350;2023-11-19T01:49:10;6.90;;;6.18;;
4911;SDS011;2471;47.056;8.350;2023-11-19T01:51:37;6.90;;;6.20;;
4911;SDS011;2471;47.056;8.350;2023-11-19T01:54:03;6.00;;;5.40;;
4911;SDS011;2471;47.056;8.350;2023-11-19T01:56:29;6.00;;;5.40;;
4911;SDS011;2471;47.056;8.350;2023-11-19T01:58:56;6.80;;;6.10;;
4911;SDS011;2471;47.056;8.350;2023-11-19T02:01:22;8.20;;;6.00;;
4911;SDS011;2471;47.056;8.350;2023-11-19T02:03:49;6.50;;;5.90;;
4911;SDS011;2471;47.056;8.350;2023-11-19T02:06:14;6.95;;;6.25;;
4911;SDS011;2471;47.056;8.350;2023-11-19T02:08:40;8.77;;;7.30;;
4911;SDS011;2471;47.056;8.350;2023-11-19T02:11:06;9.07;;;6.47;;
4911;SDS011;2471;47.056;8.350;2023-11-19T02:13:33;7.80;;;7.00;;
4911;SDS011;2471;47.056;8.350;2023-11-19T02:16:01;8.23;;;7.43;;
4911;SDS011;2471;47.056;8.350;2023-11-19T02:18:28;9.48;;;7.38;;
4911;SDS011;2471;47.056;8.350;2023-11-19T02:20:57;8.60;;;7.70;;
4911;SDS011;2471;47.056;8.350;2023-11-19T02:23:25;9.95;;;8.88;;
4911;SDS011;2471;47.056;8.350;2023-11-19T02:28:20;12.15;;;9.48;;
4911;SDS011;2471;47.056;8.350;2023-11-19T02:30:46;9.45;;;8.55;;
4911;SDS011;2471;47.056;8.350;2023-11-19T02:33:12;9.30;;;8.30;;
4911;SDS011;2471;47.056;8.350;2023-11-19T02:35:40;11.07;;;8.75;;
4911;SDS011;2471;47.056;8.350;2023-11-19T02:38:06;10.27;;;8.30;;
4911;SDS011;2471;47.056;8.350;2023-11-19T02:40:32;11.65;;;9.80;;
4911;SDS011;2471;47.056;8.350;2023-11-19T02:42:58;10.18;;;9.18;;
4911;SDS011;2471;47.056;8.350;2023-11-19T02:45:25;15.13;;;10.40;;
4911;SDS011;2471;47.056;8.350;2023-11-19T02:47:51;12.13;;;10.23;;
4911;SDS011;2471;47.056;8.350;2023-11-19T02:50:18;12.15;;;9.63;;
4911;SDS011;2471;47.056;8.350;2023-11-19T02:52:50;12.57;;;10.80;;
4911;SDS011;2471;47.056;8.350;2023-11-19T02:55:16;10.30;;;8.93;;
4911;SDS011;2471;47.056;8.350;2023-11-19T02:57:43;9.70;;;8.40;;
4911;SDS011;2471;47.056;8.350;2023-11-19T03:00:17;13.90;;;11.23;;
4911;SDS011;2471;47.056;8.350;2023-11-19T03:02:43;9.77;;;8.25;;
4911;SDS011;2471;47.056;8.350;2023-11-19T03:05:14;8.50;;;7.60;;
4911;SDS011;2471;47.056;8.350;2023-11-19T03:07:42;11.20;;;9.18;;
4911;SDS011;2471;47.056;8.350;2023-11-19T03:10:08;8.93;;;8.07;;
4911;SDS011;2471;47.056;8.350;2023-11-19T03:12:38;9.87;;;8.50;;
4911;SDS011;2471;47.056;8.350;2023-11-19T03:15:04;9.50;;;8.50;;
4911;SDS011;2471;47.056;8.350;2023-11-19T03:17:30;7.50;;;6.80;;
4911;SDS011;2471;47.056;8.350;2023-11-19T03:19:56;8.93;;;7.50;;
4911;SDS011;2471;47.056;8.350;2023-11-19T03:22:22;7.87;;;7.17;;
4911;SDS011;2471;47.056;8.350;2023-11-19T03:24:50;9.23;;;7.38;;
4911;SDS011;2471;47.056;8.350;2023-11-19T03:27:16;5.60;;;5.10;;
4911;SDS011;2471;47.056;8.350;2023-11-19T03:29:42;8.70;;;7.80;;
4911;SDS011;2471;47.056;8.350;2023-11-19T03:32:08;8.63;;;7.70;;
4911;SDS011;2471;47.056;8.350;2023-11-19T03:34:34;8.10;;;7.30;;
4911;SDS011;2471;47.056;8.350;2023-11-19T03:37:00;11.10;;;7.75;;
4911;SDS011;2471;47.056;8.350;2023-11-19T03:39:26;10.27;;;8.75;;
4911;SDS011;2471;47.056;8.350;2023-11-19T03:41:52;9.90;;;8.30;;
4911;SDS011;2471;47.056;8.350;2023-11-19T03:44:18;8.98;;;8.07;;
4911;SDS011;2471;47.056;8.350;2023-11-19T03:46:44;7.80;;;7.00;;
4911;SDS011;2471;47.056;8.350;2023-11-19T03:49:11;8.70;;;7.80;;
4911;SDS011;2471;47.056;8.350;2023-11-19T03:51:37;8.07;;;7.28;;
4911;SDS011;2471;47.056;8.350;2023-11-19T03:54:03;9.40;;;7.47;;
4911;SDS011;2471;47.056;8.350;2023-11-19T03:56:29;8.77;;;7.70;;
4911;SDS011;2471;47.056;8.350;2023-11-19T03:58:56;6.90;;;6.20;;
4911;SDS011;2471;47.056;8.350;2023-11-19T04:01:22;7.67;;;6.87;;
4911;SDS011;2471;47.056;8.350;2023-11-19T04:03:48;8.30;;;7.40;;
4911;SDS011;2471;47.056;8.350;2023-11-19T04:06:14;9.00;;;7.70;;
4911;SDS011;2471;47.056;8.350;2023-11-19T04:08:40;9.20;;;7.60;;
4911;SDS011;2471;47.056;8.350;2023-11-19T04:11:06;7.30;;;6.60;;
4911;SDS011;2471;47.056;8.350;2023-11-19T04:13:33;10.93;;;7.30;;
4911;SDS011;2471;47.056;8.350;2023-11-19T04:15:59;10.95;;;8.20;;
4911;SDS011;2471;47.056;8.350;2023-11-19T04:18:26;9.40;;;8.00;;
4911;SDS011;2471;47.056;8.350;2023-11-19T04:20:52;8.80;;;7.90;;
4911;SDS011;2471;47.056;8.350;2023-11-19T04:23:18;8.50;;;7.60;;
4911;SDS011;2471;47.056;8.350;2023-11-19T04:25:44;9.23;;;7.90;;
4911;SDS011;2471;47.056;8.350;2023-11-19T04:28:10;9.17;;;7.63;;
4911;SDS011;2471;47.056;8.350;2023-11-19T04:30:36;9.63;;;7.73;;
4911;SDS011;2471;47.056;8.350;2023-11-19T04:33:02;9.77;;;7.80;;
4911;SDS011;2471;47.056;8.350;2023-11-19T04:35:29;10.57;;;8.50;;
4911;SDS011;2471;47.056;8.350;2023-11-19T04:37:55;8.65;;;7.75;;
4911;SDS011;2471;47.056;8.350;2023-11-19T04:40:22;8.63;;;7.00;;
4911;SDS011;2471;47.056;8.350;2023-11-19T04:42:48;10.82;;;7.93;;
4911;SDS011;2471;47.056;8.350;2023-11-19T04:45:14;8.20;;;7.00;;
4911;SDS011;2471;47.056;8.350;2023-11-19T04:47:41;7.80;;;7.00;;
4911;SDS011;2471;47.056;8.350;2023-11-19T04:50:07;8.45;;;7.40;;
4911;SDS011;2471;47.056;8.350;2023-11-19T04:52:37;7.97;;;7.00;;
4911;SDS011;2471;47.056;8.350;2023-11-19T04:55:03;10.38;;;7.47;;
4911;SDS011;2471;47.056;8.350;2023-11-19T04:57:29;9.45;;;8.25;;
4911;SDS011;2471;47.056;8.350;2023-11-19T04:59:56;11.10;;;7.72;;
4911;SDS011;2471;47.056;8.350;2023-11-19T05:02:22;8.95;;;7.57;;
4911;SDS011;2471;47.056;8.350;2023-11-19T05:04:48;11.48;;;8.00;;
4911;SDS011;2471;47.056;8.350;2023-11-19T05:07:14;10.18;;;8.43;;
4911;SDS011;2471;47.056;8.350;2023-11-19T05:09:40;9.70;;;8.02;;
4911;SDS011;2471;47.056;8.350;2023-11-19T05:12:06;10.60;;;8.80;;
4911;SDS011;2471;47.056;8.350;2023-11-19T05:14:36;12.43;;;9.57;;
4911;SDS011;2471;47.056;8.350;2023-11-19T05:17:02;10.40;;;9.13;;
4911;SDS011;2471;47.056;8.350;2023-11-19T05:19:28;9.18;;;8.00;;
4911;SDS011;2471;47.056;8.350;2023-11-19T05:21:54;10.25;;;7.82;;
4911;SDS011;2471;47.056;8.350;2023-11-19T05:24:20;10.65;;;7.70;;
4911;SDS011;2471;47.056;8.350;2023-11-19T05:26:46;9.48;;;7.38;;
4911;SDS011;2471;47.056;8.350;2023-11-19T05:29:12;10.27;;;7.60;;
4911;SDS011;2471;47.056;8.350;2023-11-19T05:31:38;11.23;;;7.82;;
4911;SDS011;2471;47.056;8.350;2023-11-19T05:34:04;11.52;;;8.23;;
4911;SDS011;2471;47.056;8.350;2023-11-19T05:36:32;10.50;;;7.60;;
4911;SDS011;2471;47.056;8.350;2023-11-19T05:38:58;10.75;;;7.38;;
4911;SDS011;2471;47.056;8.350;2023-11-19T05:41:24;11.07;;;7.85;;
4911;SDS011;2471;47.056;8.350;2023-11-19T05:43:50;11.50;;;8.87;;
4911;SDS011;2471;47.056;8.350;2023-11-19T05:46:16;13.45;;;10.20;;
4911;SDS011;2471;47.056;8.350;2023-11-19T05:48:42;14.95;;;10.65;;
4911;SDS011;2471;47.056;8.350;2023-11-19T05:51:10;15.13;;;10.65;;
4911;SDS011;2471;47.056;8.350;2023-11-19T05:53:36;15.88;;;10.90;;
4911;SDS011;2471;47.056;8.350;2023-11-19T05:56:02;17.43;;;11.60;;
4911;SDS011;2471;47.056;8.350;2023-11-19T05:58:29;15.90;;;11.07;;
4911;SDS011;2471;47.056;8.350;2023-11-19T06:00:56;14.33;;;10.40;;
4911;SDS011;2471;47.056;8.350;2023-11-19T06:03:22;15.65;;;10.85;;
4911;SDS011;2471;47.056;8.350;2023-11-19T06:05:48;18.88;;;11.80;;
4911;SDS011;2471;47.056;8.350;2023-11-19T06:08:15;17.55;;;12.00;;
4911;SDS011;2471;47.056;8.350;2023-11-19T06:10:42;19.58;;;12.75;;
4911;SDS011;2471;47.056;8.350;2023-11-19T06:13:08;20.40;;;12.95;;
4911;SDS011;2471;47.056;8.350;2023-11-19T06:15:36;21.83;;;13.82;;
4911;SDS011;2471;47.056;8.350;2023-11-19T06:18:02;23.60;;;14.15;;
4911;SDS011;2471;47.056;8.350;2023-11-19T06:20:32;18.58;;;12.98;;
4911;SDS011;2471;47.056;8.350;2023-11-19T06:22:58;17.80;;;12.70;;
4911;SDS011;2471;47.056;8.350;2023-11-19T06:25:24;17.42;;;11.40;;
4911;SDS011;2471;47.056;8.350;2023-11-19T06:27:50;15.30;;;10.73;;
4911;SDS011;2471;47.056;8.350;2023-11-19T06:30:16;17.40;;;11.82;;
4911;SDS011;2471;47.056;8.350;2023-11-19T06:32:42;18.25;;;12.20;;
4911;SDS011;2471;47.056;8.350;2023-11-19T06:35:08;20.10;;;13.40;;
4911;SDS011;2471;47.056;8.350;2023-11-19T06:37:35;20.20;;;13.70;;
4911;SDS011;2471;47.056;8.350;2023-11-19T06:40:02;21.23;;;13.23;;
4911;SDS011;2471;47.056;8.350;2023-11-19T06:42:29;20.13;;;13.07;;
4911;SDS011;2471;47.056;8.350;2023-11-19T06:44:56;21.60;;;14.03;;
4911;SDS011;2471;47.056;8.350;2023-11-19T06:47:25;20.75;;;14.00;;
4911;SDS011;2471;47.056;8.350;2023-11-19T06:49:52;17.45;;;12.32;;
4911;SDS011;2471;47.056;8.350;2023-11-19T06:52:18;16.42;;;11.93;;
4911;SDS011;2471;47.056;8.350;2023-11-19T06:54:44;19.48;;;12.05;;
4911;SDS011;2471;47.056;8.350;2023-11-19T06:57:10;16.17;;;11.70;;
4911;SDS011;2471;47.056;8.350;2023-11-19T06:59:37;18.73;;;12.00;;
4911;SDS011;2471;47.056;8.350;2023-11-19T07:02:03;13.75;;;9.02;;
4911;SDS011;2471;47.056;8.350;2023-11-19T07:04:29;8.57;;;6.90;;
4911;SDS011;2471;47.056;8.350;2023-11-19T07:06:55;9.63;;;7.77;;
4911;SDS011;2471;47.056;8.350;2023-11-19T07:09:21;11.47;;;7.10;;
4911;SDS011;2471;47.056;8.350;2023-11-19T07:11:48;14.60;;;9.45;;
4911;SDS011;2471;47.056;8.350;2023-11-19T07:14:16;14.52;;;10.00;;
4911;SDS011;2471;47.056;8.350;2023-11-19T07:16:43;11.67;;;9.80;;
4911;SDS011;2471;47.056;8.350;2023-11-19T07:19:09;14.70;;;10.20;;
4911;SDS011;2471;47.056;8.350;2023-11-19T07:21:35;13.55;;;10.20;;
4911;SDS011;2471;47.056;8.350;2023-11-19T07:24:04;14.63;;;10.60;;
4911;SDS011;2471;47.056;8.350;2023-11-19T07:26:30;12.25;;;9.45;;
4911;SDS011;2471;47.056;8.350;2023-11-19T07:28:57;13.35;;;10.70;;
4911;SDS011;2471;47.056;8.350;2023-11-19T07:31:23;13.55;;;9.93;;
4911;SDS011;2471;47.056;8.350;2023-11-19T07:33:49;13.55;;;10.63;;
4911;SDS011;2471;47.056;8.350;2023-11-19T07:36:15;15.30;;;10.23;;
4911;SDS011;2471;47.056;8.350;2023-11-19T07:38:41;16.77;;;10.80;;
4911;SDS011;2471;47.056;8.350;2023-11-19T07:41:08;14.20;;;11.10;;
4911;SDS011;2471;47.056;8.350;2023-11-19T07:43:39;16.80;;;11.18;;
4911;SDS011;2471;47.056;8.350;2023-11-19T07:46:10;16.25;;;9.73;;
4911;SDS011;2471;47.056;8.350;2023-11-19T07:48:37;14.60;;;9.45;;
4911;SDS011;2471;47.056;8.350;2023-11-19T07:51:03;13.63;;;9.60;;
4911;SDS011;2471;47.056;8.350;2023-11-19T07:53:29;10.60;;;8.80;;
4911;SDS011;2471;47.056;8.350;2023-11-19T07:55:55;13.25;;;10.15;;
4911;SDS011;2471;47.056;8.350;2023-11-19T07:58:21;12.75;;;9.60;;
4911;SDS011;2471;47.056;8.350;2023-11-19T08:00:47;12.85;;;9.15;;
4911;SDS011;2471;47.056;8.350;2023-11-19T08:03:13;11.20;;;8.88;;
4911;SDS011;2471;47.056;8.350;2023-11-19T08:05:39;11.52;;;8.57;;
4911;SDS011;2471;47.056;8.350;2023-11-19T08:08:05;13.25;;;10.10;;
4911;SDS011;2471;47.056;8.350;2023-11-19T08:10:32;11.88;;;9.48;;
4911;SDS011;2471;47.056;8.350;2023-11-19T08:12:58;9.50;;;7.60;;
4911;SDS011;2471;47.056;8.350;2023-11-19T08:15:24;9.60;;;8.60;;
4911;SDS011;2471;47.056;8.350;2023-11-19T08:17:50;8.27;;;7.20;;
4911;SDS011;2471;47.056;8.350;2023-11-19T08:20:23;8.80;;;7.87;;
4911;SDS011;2471;47.056;8.350;2023-11-19T08:22:49;7.35;;;6.50;;
4911;SDS011;2471;47.056;8.350;2023-11-19T08:25:15;10.00;;;7.97;;
4911;SDS011;2471;47.056;8.350;2023-11-19T08:27:41;9.00;;;7.40;;
4911;SDS011;2471;47.056;8.350;2023-11-19T08:30:08;9.35;;;7.95;;
4911;SDS011;2471;47.056;8.350;2023-11-19T08:32:34;8.20;;;7.35;;
4911;SDS011;2471;47.056;8.350;2023-11-19T08:35:00;8.40;;;7.20;;
4911;SDS011;2471;47.056;8.350;2023-11-19T08:37:26;10.88;;;8.38;;
4911;SDS011;2471;47.056;8.350;2023-11-19T08:39:53;10.07;;;7.90;;
4911;SDS011;2471;47.056;8.350;2023-11-19T08:42:19;7.93;;;7.13;;
4911;SDS011;2471;47.056;8.350;2023-11-19T08:44:49;7.32;;;6.63;;
4911;SDS011;2471;47.056;8.350;2023-11-19T08:47:19;7.45;;;6.72;;
4911;SDS011;2471;47.056;8.350;2023-11-19T08:49:47;7.67;;;6.60;;
4911;SDS011;2471;47.056;8.350;2023-11-19T08:52:13;6.70;;;6.05;;
4911;SDS011;2471;47.056;8.350;2023-11-19T08:54:42;7.20;;;5.80;;
4911;SDS011;2471;47.056;8.350;2023-11-19T08:57:08;6.93;;;5.55;;
4911;SDS011;2471;47.056;8.350;2023-11-19T08:59:34;6.75;;;5.40;;
4911;SDS011;2471;47.056;8.350;2023-11-19T09:02:00;6.97;;;6.10;;
4911;SDS011;2471;47.056;8.350;2023-11-19T09:04:27;8.30;;;5.70;;
4911;SDS011;2471;47.056;8.350;2023-11-19T09:06:53;6.20;;;5.33;;
4911;SDS011;2471;47.056;8.350;2023-11-19T09:09:19;6.97;;;5.97;;
4911;SDS011;2471;47.056;8.350;2023-11-19T09:11:45;6.00;;;5.40;;
4911;SDS011;2471;47.056;8.350;2023-11-19T09:14:11;5.25;;;4.75;;
4911;SDS011;2471;47.056;8.350;2023-11-19T09:16:37;6.45;;;5.15;;
4911;SDS011;2471;47.056;8.350;2023-11-19T09:19:03;5.20;;;4.70;;
4911;SDS011;2471;47.056;8.350;2023-11-19T09:21:30;6.88;;;5.70;;
4911;SDS011;2471;47.056;8.350;2023-11-19T09:23:56;7.53;;;5.50;;
4911;SDS011;2471;47.056;8.350;2023-11-19T09:26:22;5.30;;;4.80;;
4911;SDS011;2471;47.056;8.350;2023-11-19T09:28:48;4.70;;;4.30;;
4911;SDS011;2471;47.056;8.350;2023-11-19T09:31:14;6.05;;;5.45;;
4911;SDS011;2471;47.056;8.350;2023-11-19T09:33:40;6.55;;;5.88;;
4911;SDS011;2471;47.056;8.350;2023-11-19T09:36:06;5.40;;;4.90;;
4911;SDS011;2471;47.056;8.350;2023-11-19T09:38:32;17.40;;;13.38;;
4911;SDS011;2471;47.056;8.350;2023-11-19T09:40:58;6.70;;;5.88;;
4911;SDS011;2471;47.056;8.350;2023-11-19T09:43:27;5.75;;;4.50;;
4911;SDS011;2471;47.056;8.350;2023-11-19T09:45:53;5.20;;;4.80;;
4911;SDS011;2471;47.056;8.350;2023-11-19T09:48:20;5.05;;;4.55;;
4911;SDS011;2471;47.056;8.350;2023-11-19T09:50:47;6.05;;;5.45;;
4911;SDS011;2471;47.056;8.350;2023-11-19T09:53:13;7.70;;;6.00;;
4911;SDS011;2471;47.056;8.350;2023-11-19T09:55:40;6.03;;;5.43;;
4911;SDS011;2471;47.056;8.350;2023-11-19T09:58:07;5.93;;;5.33;;
4911;SDS011;2471;47.056;8.350;2023-11-19T10:00:33;4.22;;;3.83;;
4911;SDS011;2471;47.056;8.350;2023-11-19T10:03:00;3.10;;;2.90;;
4911;SDS011;2471;47.056;8.350;2023-11-19T10:05:26;3.20;;;3.00;;
4911;SDS011;2471;47.056;8.350;2023-11-19T10:07:52;2.83;;;2.60;;
4911;SDS011;2471;47.056;8.350;2023-11-19T10:10:20;3.80;;;3.50;;
4911;SDS011;2471;47.056;8.350;2023-11-19T10:12:46;5.40;;;4.90;;
4911;SDS011;2471;47.056;8.350;2023-11-19T10:15:17;5.25;;;4.75;;
4911;SDS011;2471;47.056;8.350;2023-11-19T10:17:45;5.10;;;4.60;;
4911;SDS011;2471;47.056;8.350;2023-11-19T10:20:11;4.40;;;4.00;;
4911;SDS011;2471;47.056;8.350;2023-11-19T10:22:37;4.75;;;4.03;;
4911;SDS011;2471;47.056;8.350;2023-11-19T10:25:04;4.80;;;4.30;;
4911;SDS011;2471;47.056;8.350;2023-11-19T10:27:30;3.70;;;3.50;;
4911;SDS011;2471;47.056;8.350;2023-11-19T10:29:59;4.43;;;3.35;;
4911;SDS011;2471;47.056;8.350;2023-11-19T10:32:26;3.35;;;3.13;;
4911;SDS011;2471;47.056;8.350;2023-11-19T10:34:51;4.57;;;3.90;;
4911;SDS011;2471;47.056;8.350;2023-11-19T10:37:27;3.90;;;3.60;;
4911;SDS011;2471;47.056;8.350;2023-11-19T10:39:54;3.60;;;3.30;;
4911;SDS011;2471;47.056;8.350;2023-11-19T10:42:21;3.42;;;3.13;;
4911;SDS011;2471;47.056;8.350;2023-11-19T10:44:47;3.20;;;3.00;;
4911;SDS011;2471;47.056;8.350;2023-11-19T10:47:18;3.38;;;3.08;;
4911;SDS011;2471;47.056;8.350;2023-11-19T10:49:45;3.80;;;3.60;;
4911;SDS011;2471;47.056;8.350;2023-11-19T10:52:11;5.27;;;3.60;;
4911;SDS011;2471;47.056;8.350;2023-11-19T10:54:38;4.90;;;4.40;;
4911;SDS011;2471;47.056;8.350;2023-11-19T10:57:05;4.53;;;4.13;;
4911;SDS011;2471;47.056;8.350;2023-11-19T10:59:33;3.20;;;3.00;;
4911;SDS011;2471;47.056;8.350;2023-11-19T11:02:00;4.35;;;3.70;;
4911;SDS011;2471;47.056;8.350;2023-11-19T11:04:30;3.97;;;3.13;;
4911;SDS011;2471;47.056;8.350;2023-11-19T11:06:59;4.07;;;3.13;;
4911;SDS011;2471;47.056;8.350;2023-11-19T11:09:26;3.55;;;3.35;;
4911;SDS011;2471;47.056;8.350;2023-11-19T11:11:53;3.60;;;3.20;;
4911;SDS011;2471;47.056;8.350;2023-11-19T11:14:20;5.03;;;4.40;;
4911;SDS011;2471;47.056;8.350;2023-11-19T11:16:46;3.60;;;3.30;;
4911;SDS011;2471;47.056;8.350;2023-11-19T11:19:15;3.80;;;3.40;;
4911;SDS011;2471;47.056;8.350;2023-11-19T11:21:42;3.25;;;3.05;;
4911;SDS011;2471;47.056;8.350;2023-11-19T11:29:13;2.65;;;2.45;;
4911;SDS011;2471;47.056;8.350;2023-11-19T11:31:44;2.95;;;2.50;;
4911;SDS011;2471;47.056;8.350;2023-11-19T11:34:22;5.60;;;3.80;;
4911;SDS011;2471;47.056;8.350;2023-11-19T11:37:03;3.78;;;3.47;;
4911;SDS011;2471;47.056;8.350;2023-11-19T11:39:32;3.40;;;3.10;;
4911;SDS011;2471;47.056;8.350;2023-11-19T11:50:11;2.45;;;2.28;;
4911;SDS011;2471;47.056;8.350;2023-11-19T11:58:00;5.55;;;2.75;;
4911;SDS011;2471;47.056;8.350;2023-11-19T12:03:01;3.03;;;2.83;;
4911;SDS011;2471;47.056;8.350;2023-11-19T12:05:27;2.00;;;1.90;;
4911;SDS011;2471;47.056;8.350;2023-11-19T12:07:56;2.35;;;2.15;;
4911;SDS011;2471;47.056;8.350;2023-11-19T12:10:24;2.20;;;2.10;;
4911;SDS011;2471;47.056;8.350;2023-11-19T12:12:56;1.85;;;1.75;;
4911;SDS011;2471;47.056;8.350;2023-11-19T12:15:23;1.80;;;1.70;;
4911;SDS011;2471;47.056;8.350;2023-11-19T12:17:51;2.00;;;1.80;;
4911;SDS011;2471;47.056;8.350;2023-11-19T12:20:18;2.15;;;1.98;;
4911;SDS011;2471;47.056;8.350;2023-11-19T12:22:45;2.20;;;2.00;;
4911;SDS011;2471;47.056;8.350;2023-11-19T12:25:12;2.22;;;2.03;;
4911;SDS011;2471;47.056;8.350;2023-11-19T12:27:41;1.40;;;1.30;;
4911;SDS011;2471;47.056;8.350;2023-11-19T12:30:08;1.60;;;1.50;;
4911;SDS011;2471;47.056;8.350;2023-11-19T12:32:40;5.75;;;2.60;;
4911;SDS011;2471;47.056;8.350;2023-11-19T12:35:10;1.90;;;1.50;;
4911;SDS011;2471;47.056;8.350;2023-11-19T12:37:40;2.28;;;2.08;;
4911;SDS011;2471;47.056;8.350;2023-11-19T12:40:15;2.42;;;2.22;;
4911;SDS011;2471;47.056;8.350;2023-11-19T12:42:42;1.50;;;1.40;;
4911;SDS011;2471;47.056;8.350;2023-11-19T12:45:08;1.90;;;1.80;;
4911;SDS011;2471;47.056;8.350;2023-11-19T12:47:38;1.50;;;1.40;;
4911;SDS011;2471;47.056;8.350;2023-11-19T12:50:05;1.55;;;1.38;;
4911;SDS011;2471;47.056;8.350;2023-11-19T12:52:32;1.30;;;1.20;;
4911;SDS011;2471;47.056;8.350;2023-11-19T12:54:58;2.10;;;1.20;;
4911;SDS011;2471;47.056;8.350;2023-11-19T12:57:37;1.40;;;1.30;;
4911;SDS011;2471;47.056;8.350;2023-11-19T13:00:04;1.50;;;1.40;;
4911;SDS011;2471;47.056;8.350;2023-11-19T13:02:46;1.52;;;1.42;;
4911;SDS011;2471;47.056;8.350;2023-11-19T13:05:28;1.52;;;1.40;;
4911;SDS011;2471;47.056;8.350;2023-11-19T13:10:29;3.25;;;1.70;;
4911;SDS011;2471;47.056;8.350;2023-11-19T13:13:06;1.50;;;1.40;;
4911;SDS011;2471;47.056;8.350;2023-11-19T13:15:33;1.63;;;1.38;;
4911;SDS011;2471;47.056;8.350;2023-11-19T13:17:59;1.70;;;1.60;;
4911;SDS011;2471;47.056;8.350;2023-11-19T13:20:25;1.60;;;1.50;;
4911;SDS011;2471;47.056;8.350;2023-11-19T13:22:55;2.47;;;2.17;;
4911;SDS011;2471;47.056;8.350;2023-11-19T13:25:21;2.20;;;2.00;;
4911;SDS011;2471;47.056;8.350;2023-11-19T13:27:47;5.90;;;1.70;;
4911;SDS011;2471;47.056;8.350;2023-11-19T13:30:13;2.20;;;1.90;;
4911;SDS011;2471;47.056;8.350;2023-11-19T13:32:39;2.60;;;2.00;;
4911;SDS011;2471;47.056;8.350;2023-11-19T13:35:05;3.40;;;1.80;;
4911;SDS011;2471;47.056;8.350;2023-11-19T13:37:33;2.38;;;2.17;;
4911;SDS011;2471;47.056;8.350;2023-11-19T13:39:59;2.00;;;1.90;;
4911;SDS011;2471;47.056;8.350;2023-11-19T13:42:25;1.73;;;1.63;;
4911;SDS011;2471;47.056;8.350;2023-11-19T13:44:52;1.70;;;1.60;;
4911;SDS011;2471;47.056;8.350;2023-11-19T13:47:18;1.30;;;1.20;;
4911;SDS011;2471;47.056;8.350;2023-11-19T13:49:47;2.25;;;1.75;;
4911;SDS011;2471;47.056;8.350;2023-11-19T13:52:13;2.30;;;1.40;;
4911;SDS011;2471;47.056;8.350;2023-11-19T13:54:39;1.40;;;1.30;;
4911;SDS011;2471;47.056;8.350;2023-11-19T13:57:05;1.60;;;1.30;;
4911;SDS011;2471;47.056;8.350;2023-11-19T13:59:31;1.33;;;1.20;;
4911;SDS011;2471;47.056;8.350;2023-11-19T14:02:00;2.70;;;1.30;;
4911;SDS011;2471;47.056;8.350;2023-11-19T14:04:26;1.50;;;1.30;;
4911;SDS011;2471;47.056;8.350;2023-11-19T14:06:52;1.30;;;1.20;;
4911;SDS011;2471;47.056;8.350;2023-11-19T14:09:20;1.00;;;0.90;;
4911;SDS011;2471;47.056;8.350;2023-11-19T14:11:46;1.58;;;1.20;;
4911;SDS011;2471;47.056;8.350;2023-11-19T14:14:12;1.20;;;1.10;;
4911;SDS011;2471;47.056;8.350;2023-11-19T14:16:38;2.40;;;1.98;;
4911;SDS011;2471;47.056;8.350;2023-11-19T14:19:05;2.00;;;1.90;;
4911;SDS011;2471;47.056;8.350;2023-11-19T14:21:31;2.60;;;1.30;;
4911;SDS011;2471;47.056;8.350;2023-11-19T14:23:57;1.40;;;1.10;;
4911;SDS011;2471;47.056;8.350;2023-11-19T14:26:23;2.50;;;1.20;;
4911;SDS011;2471;47.056;8.350;2023-11-19T14:28:49;3.22;;;2.80;;
4911;SDS011;2471;47.056;8.350;2023-11-19T14:31:15;1.53;;;1.23;;
4911;SDS011;2471;47.056;8.350;2023-11-19T14:33:41;1.40;;;1.20;;
4911;SDS011;2471;47.056;8.350;2023-11-19T14:36:07;1.35;;;1.25;;
4911;SDS011;2471;47.056;8.350;2023-11-19T14:38:33;1.70;;;1.50;;
4911;SDS011;2471;47.056;8.350;2023-11-19T14:40:59;1.42;;;1.33;;
4911;SDS011;2471;47.056;8.350;2023-11-19T14:43:25;1.40;;;1.30;;
4911;SDS011;2471;47.056;8.350;2023-11-19T14:45:51;2.00;;;1.13;;
4911;SDS011;2471;47.056;8.350;2023-11-19T14:48:17;1.20;;;1.10;;
4911;SDS011;2471;47.056;8.350;2023-11-19T14:50:43;1.30;;;1.20;;
4911;SDS011;2471;47.056;8.350;2023-11-19T14:53:10;1.17;;;1.08;;
4911;SDS011;2471;47.056;8.350;2023-11-19T14:55:36;2.40;;;1.20;;
4911;SDS011;2471;47.056;8.350;2023-11-19T14:58:02;1.20;;;1.00;;
4911;SDS011;2471;47.056;8.350;2023-11-19T15:00:27;2.10;;;1.02;;
4911;SDS011;2471;47.056;8.350;2023-11-19T15:02:53;3.07;;;1.20;;
4911;SDS011;2471;47.056;8.350;2023-11-19T15:05:20;1.20;;;1.10;;
4911;SDS011;2471;47.056;8.350;2023-11-19T15:07:46;1.20;;;1.10;;
4911;SDS011;2471;47.056;8.350;2023-11-19T15:10:13;2.70;;;1.67;;
4911;SDS011;2471;47.056;8.350;2023-11-19T15:12:39;1.50;;;1.40;;
4911;SDS011;2471;47.056;8.350;2023-11-19T15:15:07;1.40;;;1.30;;
4911;SDS011;2471;47.056;8.350;2023-11-19T15:17:34;1.20;;;1.20;;
4911;SDS011;2471;47.056;8.350;2023-11-19T15:20:01;1.70;;;1.40;;
4911;SDS011;2471;47.056;8.350;2023-11-19T15:22:27;1.57;;;1.47;;
4911;SDS011;2471;47.056;8.350;2023-11-19T15:24:53;1.80;;;1.60;;
4911;SDS011;2471;47.056;8.350;2023-11-19T15:27:19;1.30;;;1.20;;
4911;SDS011;2471;47.056;8.350;2023-11-19T15:29:45;1.40;;;1.30;;
4911;SDS011;2471;47.056;8.350;2023-11-19T15:32:11;3.28;;;1.70;;
4911;SDS011;2471;47.056;8.350;2023-11-19T15:34:37;1.70;;;1.60;;